createdAt,value
2018-03-02T00:01:45.850Z,38.30
2018-03-02T00:04:14.369Z,37.35
2018-03-02T00:06:42.075Z,35.92
2018-03-02T00:09:09.682Z,32.33
2018-03-02T00:11:37.358Z,29.60
2018-03-02T00:14:05.235Z,31.80
2018-03-02T00:16:32.757Z,31.92
2018-03-02T00:19:01.051Z,32.38
2018-03-02T00:21:28.784Z,30.25
2018-03-02T00:23:56.802Z,25.52
2018-03-02T00:26:25.444Z,25.75
2018-03-02T00:28:53.813Z,33.20
2018-03-02T00:31:21.493Z,39.10
2018-03-02T00:33:49.791Z,30.65
2018-03-02T00:36:17.345Z,35.38
2018-03-02T00:38:44.867Z,36.03
2018-03-02T00:41:12.471Z,36.10
2018-03-02T00:43:40.031Z,33.90
2018-03-02T00:46:07.559Z,34.30
2018-03-02T00:48:35.149Z,27.65
2018-03-02T00:51:02.665Z,41.72
2018-03-02T00:53:30.282Z,32.22
2018-03-02T00:55:57.831Z,30.25
2018-03-02T00:58:25.344Z,39.47
2018-03-02T01:00:52.963Z,38.80
2018-03-02T01:03:20.626Z,35.20
2018-03-02T01:05:48.182Z,29.37
2018-03-02T01:08:15.775Z,33.53
2018-03-02T01:10:43.290Z,38.03
2018-03-02T01:13:11.622Z,30.67
2018-03-02T01:15:39.522Z,28.75
2018-03-02T01:18:08.240Z,26.42
2018-03-02T01:20:36.043Z,37.63
2018-03-02T01:23:03.672Z,36.70
2018-03-02T01:25:31.314Z,32.08
2018-03-02T01:27:58.851Z,34.63
2018-03-02T01:30:26.564Z,33.97
2018-03-02T01:32:54.189Z,32.13
2018-03-02T01:35:22.600Z,28.35
2018-03-02T01:37:50.668Z,36.65
2018-03-02T01:40:18.742Z,34.75
2018-03-02T01:42:46.643Z,27.30
2018-03-02T01:45:14.244Z,45.42
2018-03-02T01:47:43.013Z,43.45
2018-03-02T01:50:10.998Z,43.38
2018-03-02T01:52:39.436Z,44.53
2018-03-02T01:55:07.190Z,33.75
2018-03-02T01:57:35.343Z,30.48
2018-03-02T02:00:03.025Z,33.83
2018-03-02T02:02:30.697Z,37.90
2018-03-02T02:04:58.765Z,40.60
2018-03-02T02:07:27.538Z,31.90
2018-03-02T02:09:55.223Z,36.55
2018-03-02T02:12:22.962Z,35.83
2018-03-02T02:14:50.487Z,43.17
2018-03-02T02:17:19.052Z,37.28
2018-03-02T02:19:46.913Z,36.50
2018-03-02T02:22:14.655Z,33.30
2018-03-02T02:24:42.476Z,40.00
2018-03-02T02:27:10.815Z,36.20
2018-03-02T02:29:38.326Z,35.67
2018-03-02T02:32:06.206Z,43.95
2018-03-02T02:34:33.729Z,44.92
2018-03-02T02:37:03.266Z,34.78
2018-03-02T02:39:31.081Z,36.17
2018-03-02T02:41:58.816Z,35.70
2018-03-02T02:44:26.558Z,33.60
2018-03-02T02:46:54.280Z,38.95
2018-03-02T02:49:22.086Z,34.88
2018-03-02T02:51:50.474Z,43.63
2018-03-02T02:54:18.052Z,32.83
2018-03-02T02:56:46.020Z,46.08
2018-03-02T02:59:13.676Z,43.75
2018-03-02T03:01:41.332Z,32.35
2018-03-02T03:04:09.110Z,35.50
2018-03-02T03:06:36.940Z,47.05
2018-03-02T03:09:06.258Z,50.47
2018-03-02T03:11:34.871Z,41.45
2018-03-02T03:14:02.712Z,35.55
2018-03-02T03:16:30.784Z,36.95
2018-03-02T03:18:58.467Z,35.40
2018-03-02T03:21:27.034Z,36.55
2018-03-02T03:23:54.552Z,37.20
2018-03-02T03:26:22.173Z,42.20
2018-03-02T03:28:50.226Z,37.22
2018-03-02T03:31:18.211Z,35.25
2018-03-02T03:33:46.268Z,45.92
2018-03-02T03:36:14.242Z,39.10
2018-03-02T03:38:42.429Z,39.17
2018-03-02T03:41:10.292Z,35.50
2018-03-02T03:43:37.844Z,40.63
2018-03-02T03:46:05.432Z,49.03
2018-03-02T03:48:33.062Z,42.08
2018-03-02T03:51:01.139Z,33.55
2018-03-02T03:53:29.104Z,42.60
2018-03-02T03:55:57.088Z,47.30
2018-03-02T03:58:24.836Z,42.90
2018-03-02T04:00:53.379Z,42.22
2018-03-02T04:03:21.390Z,45.65
2018-03-02T04:05:49.152Z,48.55
2018-03-02T04:08:17.630Z,37.72
2018-03-02T04:10:46.523Z,43.30
2018-03-02T04:13:15.029Z,40.00
2018-03-02T04:15:43.580Z,37.97
2018-03-02T04:18:13.528Z,41.85
2018-03-02T04:20:41.767Z,43.83
2018-03-02T04:23:09.633Z,37.38
2018-03-02T04:25:37.708Z,41.17
2018-03-02T04:28:05.578Z,36.53
2018-03-02T04:30:34.254Z,29.58
2018-03-02T04:33:02.063Z,41.15
2018-03-02T04:35:29.830Z,35.58
2018-03-02T04:37:57.748Z,47.10
2018-03-02T04:40:26.765Z,35.05
2018-03-02T04:42:56.450Z,46.53
2018-03-02T04:45:24.210Z,37.72
2018-03-02T04:47:52.283Z,38.67
2018-03-02T04:50:19.898Z,47.65
2018-03-02T04:52:47.450Z,42.47
2018-03-02T04:55:15.329Z,49.97
2018-03-02T04:57:43.260Z,47.83
2018-03-02T05:00:11.167Z,61.58
2018-03-02T05:02:39.753Z,50.17
2018-03-02T05:05:07.621Z,45.22
2018-03-02T05:07:35.166Z,42.72
2018-03-02T05:10:02.693Z,45.40
2018-03-02T05:12:30.210Z,48.05
2018-03-02T05:14:57.734Z,40.63
2018-03-02T05:17:26.038Z,43.78
2018-03-02T05:19:53.556Z,41.35
2018-03-02T05:22:21.084Z,35.67
2018-03-02T05:24:48.594Z,38.20
2018-03-02T05:27:16.874Z,39.83
2018-03-02T05:29:44.861Z,39.95
2018-03-02T05:32:13.652Z,36.22
2018-03-02T05:34:41.524Z,42.58
2018-03-02T05:37:09.574Z,47.88
2018-03-02T05:39:37.626Z,42.33
2018-03-02T05:42:05.424Z,33.33
2018-03-02T05:44:33.088Z,47.60
2018-03-02T05:47:01.062Z,44.03
2018-03-02T05:49:28.873Z,25.67
2018-03-02T05:51:56.999Z,54.10
2018-03-02T05:54:25.057Z,37.47
2018-03-02T05:56:53.348Z,36.50
2018-03-02T05:59:20.892Z,48.17
2018-03-02T06:01:49.198Z,44.38
2018-03-02T06:04:16.746Z,34.45
2018-03-02T06:06:44.486Z,44.63
2018-03-02T06:09:13.201Z,52.50
2018-03-02T06:11:41.182Z,37.65
2018-03-02T06:14:08.903Z,47.97
2018-03-02T06:16:37.622Z,54.58
2018-03-02T06:19:05.554Z,39.10
2018-03-02T06:21:33.565Z,35.30
2018-03-02T06:24:01.537Z,38.92
2018-03-02T06:26:30.424Z,52.22
2018-03-02T06:28:58.346Z,62.47
2018-03-02T06:31:26.277Z,38.53
2018-03-02T06:33:54.180Z,53.08
2018-03-02T06:38:56.025Z,42.05
2018-03-02T06:41:23.772Z,40.30
2018-03-02T06:43:51.505Z,45.55
2018-03-02T06:46:20.226Z,40.63
2018-03-02T06:48:48.197Z,43.78
2018-03-02T06:51:16.267Z,44.05
2018-03-02T06:53:43.927Z,55.35
2018-03-02T06:56:12.102Z,33.55
2018-03-02T06:58:39.997Z,59.92
2018-03-02T07:01:08.145Z,42.20
2018-03-02T07:03:36.034Z,71.25
2018-03-02T07:06:03.984Z,47.33
2018-03-02T07:08:32.055Z,82.72
2018-03-02T07:11:00.662Z,59.75
2018-03-02T07:13:28.158Z,61.83
2018-03-02T07:15:55.747Z,77.50
2018-03-02T07:18:23.310Z,108.97
2018-03-02T07:20:50.877Z,52.45
2018-03-02T07:23:18.747Z,56.85
2018-03-02T07:25:47.026Z,42.60
2018-03-02T07:28:14.892Z,55.33
2018-03-02T07:30:42.863Z,38.80
2018-03-02T07:33:12.061Z,42.35
2018-03-02T07:35:40.263Z,63.47
2018-03-02T07:38:07.934Z,65.55
2018-03-02T07:40:35.862Z,41.88
2018-03-02T07:43:03.661Z,51.35
2018-03-02T07:45:31.675Z,55.37
2018-03-02T07:48:00.211Z,48.67
2018-03-02T07:50:28.044Z,59.00
2018-03-02T07:52:55.718Z,61.55
2018-03-02T07:55:29.505Z,53.67
2018-03-02T07:57:57.797Z,48.60
2018-03-02T08:00:25.372Z,42.72
2018-03-02T08:02:52.905Z,50.78
2018-03-02T08:05:21.333Z,41.92
2018-03-02T08:07:48.860Z,64.67
2018-03-02T08:10:16.443Z,54.13
2018-03-02T08:12:43.990Z,62.95
2018-03-02T08:15:11.534Z,41.05
2018-03-02T08:17:39.050Z,62.50
2018-03-02T08:20:06.775Z,53.65
2018-03-02T08:22:34.332Z,51.67
2018-03-02T08:25:01.834Z,64.43
2018-03-02T08:27:29.352Z,57.70
2018-03-02T08:29:56.869Z,49.20
2018-03-02T08:32:25.151Z,54.13
2018-03-02T08:34:53.567Z,61.33
2018-03-02T08:37:21.125Z,55.50
2018-03-02T08:39:48.657Z,49.92
2018-03-02T08:42:16.935Z,54.45
2018-03-02T08:44:45.222Z,60.75
2018-03-02T08:47:12.734Z,53.53
2018-03-02T08:49:40.256Z,62.90
2018-03-02T08:52:07.765Z,56.37
2018-03-02T08:54:35.295Z,59.45
2018-03-02T08:57:02.818Z,59.78
2018-03-02T08:59:30.385Z,56.95
2018-03-02T09:01:57.960Z,59.35
2018-03-02T09:04:25.500Z,56.40
2018-03-02T09:06:53.019Z,52.10
2018-03-02T09:09:21.342Z,48.45
2018-03-02T09:11:48.938Z,58.90
2018-03-02T09:14:16.469Z,49.78
2018-03-02T09:16:44.026Z,53.80
2018-03-02T09:19:11.554Z,59.55
2018-03-02T09:21:39.077Z,55.55
2018-03-02T09:24:06.616Z,55.70
2018-03-02T09:26:34.131Z,57.03
2018-03-02T09:29:01.741Z,55.53
2018-03-02T09:31:29.292Z,59.22
2018-03-02T09:33:56.822Z,62.85
2018-03-02T09:36:25.237Z,65.18
2018-03-02T09:38:52.779Z,54.25
2018-03-02T09:41:20.346Z,55.88
2018-03-02T09:43:47.896Z,56.42
2018-03-02T09:46:15.402Z,69.00
2018-03-02T09:48:42.916Z,51.72
2018-03-02T09:51:10.488Z,48.17
2018-03-02T09:53:38.043Z,49.53
2018-03-02T09:56:05.604Z,68.68
2018-03-02T09:58:33.161Z,55.70
2018-03-02T10:01:00.715Z,54.47
2018-03-02T10:03:28.607Z,50.08
2018-03-02T10:05:56.145Z,56.75
2018-03-02T10:08:23.663Z,58.35
2018-03-02T10:10:51.162Z,52.90
2018-03-02T10:13:18.674Z,58.92
2018-03-02T10:15:46.187Z,60.67
2018-03-02T10:18:13.706Z,58.40
2018-03-02T10:20:41.225Z,58.78
2018-03-02T10:23:08.885Z,50.05
2018-03-02T10:25:36.434Z,60.95
2018-03-02T10:28:03.947Z,54.92
2018-03-02T10:30:31.561Z,49.38
2018-03-02T10:32:59.072Z,54.95
2018-03-02T10:35:27.383Z,50.53
2018-03-02T10:37:54.951Z,54.92
2018-03-02T10:40:22.498Z,53.30
2018-03-02T10:42:50.792Z,49.50
2018-03-02T10:45:18.300Z,54.50
2018-03-02T10:47:45.820Z,54.58
2018-03-02T10:50:13.334Z,58.70
2018-03-02T10:52:41.623Z,47.85
2018-03-02T10:55:09.923Z,60.63
2018-03-02T10:57:37.495Z,50.05
2018-03-02T11:00:05.006Z,53.17
2018-03-02T11:02:32.511Z,55.90
2018-03-02T11:05:05.746Z,57.75
2018-03-02T11:07:33.257Z,67.57
2018-03-02T11:10:00.817Z,63.75
2018-03-02T11:12:28.338Z,62.17
2018-03-02T11:14:55.919Z,63.47
2018-03-02T11:17:23.570Z,62.28
2018-03-02T11:19:51.882Z,57.35
2018-03-02T11:22:19.392Z,56.37
2018-03-02T11:24:47.703Z,55.28
2018-03-02T11:27:15.270Z,48.58
2018-03-02T11:29:42.824Z,53.42
2018-03-02T11:32:10.347Z,57.42
2018-03-02T11:34:37.947Z,59.65
2018-03-02T11:37:05.511Z,53.28
2018-03-02T11:39:33.396Z,55.70
2018-03-02T11:42:00.940Z,59.15
2018-03-02T11:44:28.472Z,51.10
2018-03-02T11:46:56.839Z,56.00
2018-03-02T11:49:24.328Z,68.80
2018-03-02T11:51:51.906Z,51.53
2018-03-02T11:54:19.441Z,52.25
2018-03-02T11:56:47.727Z,59.13
2018-03-02T11:59:15.312Z,53.40
2018-03-02T12:01:42.836Z,59.10
2018-03-02T12:04:11.131Z,50.50
2018-03-02T12:06:38.703Z,56.53
2018-03-02T12:09:06.210Z,60.60
2018-03-02T12:11:33.719Z,55.25
2018-03-02T12:14:01.231Z,60.50
2018-03-02T12:16:28.748Z,56.22
2018-03-02T12:18:56.295Z,61.25
2018-03-02T12:21:23.804Z,56.47
2018-03-02T12:23:51.425Z,57.72
2018-03-02T12:26:18.947Z,55.17
2018-03-02T12:28:47.353Z,60.55
2018-03-02T12:31:14.887Z,51.05
2018-03-02T12:33:43.201Z,57.10
2018-03-02T12:36:10.759Z,59.03
2018-03-02T12:38:38.312Z,55.10
2018-03-02T12:41:05.819Z,49.40
2018-03-02T12:43:33.344Z,55.63
2018-03-02T12:46:00.889Z,53.72
2018-03-02T12:48:28.442Z,52.33
2018-03-02T12:50:55.950Z,59.55
2018-03-02T12:53:23.533Z,50.45
2018-03-02T12:55:51.144Z,55.78
2018-03-02T12:58:18.687Z,58.17
2018-03-02T13:00:46.247Z,34.38
2018-03-02T13:03:13.806Z,53.78
2018-03-02T13:05:42.084Z,54.85
2018-03-02T13:08:09.606Z,61.00
2018-03-02T13:10:37.132Z,51.88
2018-03-02T13:13:04.655Z,64.82
2018-03-02T13:15:32.935Z,59.22
2018-03-02T13:18:01.241Z,56.42
2018-03-02T13:20:28.787Z,50.72
2018-03-02T13:22:56.350Z,53.58
2018-03-02T13:25:23.918Z,55.03
2018-03-02T13:28:03.457Z,52.67
2018-03-02T13:30:30.987Z,57.83
2018-03-02T13:33:10.543Z,57.90
2018-03-02T13:35:38.094Z,61.50
2018-03-02T13:38:05.606Z,48.75
2018-03-02T13:40:45.057Z,61.95
2018-03-02T13:43:12.580Z,58.47
2018-03-02T13:45:40.108Z,51.15
2018-03-02T14:01:36.855Z,54.08
2018-03-02T14:04:16.409Z,70.32
2018-03-02T14:06:43.923Z,61.60
2018-03-02T14:09:11.439Z,58.15
2018-03-02T14:11:38.982Z,54.38
2018-03-02T14:14:06.676Z,58.67
2018-03-02T14:16:34.260Z,56.35
2018-03-02T14:19:01.872Z,54.83
2018-03-02T14:21:29.434Z,59.78
2018-03-02T14:23:56.989Z,48.97
2018-03-02T14:26:24.500Z,67.60
2018-03-02T14:28:52.005Z,57.97
2018-03-02T14:31:19.610Z,58.33
2018-03-02T14:33:47.141Z,54.67
2018-03-02T14:36:14.679Z,54.50
2018-03-02T14:38:42.956Z,59.15
2018-03-02T14:41:11.251Z,57.08
2018-03-02T14:43:38.770Z,54.63
2018-03-02T14:46:07.073Z,59.35
2018-03-02T14:48:34.589Z,55.17
2018-03-02T14:51:02.138Z,55.90
2018-03-02T14:53:29.664Z,55.08
2018-03-02T14:55:57.176Z,56.50
2018-03-02T14:58:24.779Z,50.95
2018-03-02T15:00:52.744Z,61.00
2018-03-02T15:03:21.105Z,59.22
2018-03-02T15:05:48.705Z,56.83
2018-03-02T15:08:16.215Z,59.72
2018-03-02T15:10:43.764Z,64.72
2018-03-02T15:13:11.292Z,51.97
2018-03-02T15:15:38.813Z,55.15
2018-03-02T15:18:07.089Z,60.05
2018-03-02T15:20:35.363Z,54.97
2018-03-02T15:23:03.697Z,59.75
2018-03-02T15:25:31.253Z,59.35
2018-03-02T15:27:58.794Z,59.25
2018-03-02T15:30:26.357Z,62.20
2018-03-02T15:32:53.891Z,57.65
2018-03-02T15:35:22.204Z,56.22
2018-03-02T15:37:50.414Z,58.00
2018-03-02T15:40:17.932Z,52.92
2018-03-02T15:42:45.546Z,62.50
2018-03-02T15:45:13.143Z,57.30
2018-03-02T15:47:40.672Z,52.83
2018-03-02T15:50:08.265Z,52.83
2018-03-02T15:52:35.793Z,57.38
2018-03-02T15:55:03.316Z,49.30
2018-03-02T15:57:30.840Z,57.28
2018-03-02T15:59:58.368Z,68.37
2018-03-02T16:02:26.716Z,65.90
2018-03-02T16:04:54.244Z,52.62
2018-03-02T16:07:21.791Z,58.00
2018-03-02T16:09:49.321Z,53.87
2018-03-02T16:12:17.614Z,59.85
2018-03-02T16:14:45.937Z,65.70
2018-03-02T16:17:13.500Z,60.47
2018-03-02T16:19:41.084Z,50.97
2018-03-02T16:22:08.621Z,54.28
2018-03-02T16:24:38.113Z,58.80
2018-03-02T16:27:06.188Z,58.73
2018-03-02T16:29:35.488Z,55.60
2018-03-02T16:32:03.358Z,61.03
2018-03-02T16:34:30.929Z,57.53
2018-03-02T16:36:58.886Z,61.20
2018-03-02T16:39:26.884Z,59.05
2018-03-02T16:41:54.404Z,56.28
2018-03-02T16:44:22.764Z,49.97
2018-03-02T16:46:50.458Z,54.90
2018-03-02T16:49:19.486Z,58.35
2018-03-02T16:51:47.836Z,53.60
2018-03-02T16:54:15.834Z,50.40
2018-03-02T16:56:45.180Z,56.88
2018-03-02T16:59:12.841Z,53.85
2018-03-02T17:01:41.367Z,49.50
2018-03-02T17:04:08.911Z,55.53
2018-03-02T17:06:36.493Z,49.40
2018-03-02T17:09:04.045Z,54.08
2018-03-02T17:11:31.620Z,51.67
2018-03-02T17:13:59.153Z,49.83
2018-03-02T17:16:26.711Z,50.00
2018-03-02T17:18:54.278Z,45.55
2018-03-02T17:21:21.808Z,49.25
2018-03-02T17:23:50.096Z,54.13
2018-03-02T17:26:17.655Z,56.50
2018-03-02T17:28:45.163Z,52.72
2018-03-02T17:31:12.777Z,46.33
2018-03-02T17:33:40.356Z,64.22
2018-03-02T17:36:07.912Z,52.38
2018-03-02T17:38:35.436Z,51.95
2018-03-02T17:41:03.735Z,54.78
2018-03-02T17:43:31.307Z,46.95
2018-03-02T17:45:59.080Z,50.88
2018-03-02T17:48:26.616Z,50.08
2018-03-02T17:50:54.153Z,54.47
2018-03-02T17:53:21.742Z,55.38
2018-03-02T17:55:49.284Z,40.80
2018-03-02T17:58:17.578Z,44.58
2018-03-02T18:00:45.102Z,43.55
2018-03-02T18:03:12.707Z,50.55
2018-03-02T18:05:40.224Z,52.65
2018-03-02T18:08:07.759Z,44.58
2018-03-02T18:10:35.408Z,24.73
2018-03-02T18:13:02.979Z,47.72
2018-03-02T18:15:30.522Z,50.10
2018-03-02T18:17:58.094Z,40.50
2018-03-02T18:20:25.649Z,45.30
2018-03-02T18:22:53.618Z,38.63
2018-03-02T18:25:21.692Z,38.03
2018-03-02T18:27:49.261Z,34.53
2018-03-02T18:30:17.527Z,41.70
2018-03-02T18:32:45.668Z,48.85
2018-03-02T18:35:15.002Z,39.80
2018-03-02T18:37:42.780Z,34.40
2018-03-02T18:40:10.429Z,42.75
2018-03-02T18:42:38.496Z,44.28
2018-03-02T18:45:06.103Z,46.42
2018-03-02T18:47:33.653Z,46.97
2018-03-02T18:50:01.260Z,46.03
2018-03-02T18:52:28.835Z,38.25
2018-03-02T18:54:56.606Z,41.72
2018-03-02T18:57:24.302Z,48.67
2018-03-02T18:59:51.935Z,35.95
2018-03-02T19:02:19.509Z,42.40
2018-03-02T19:04:47.247Z,40.38
2018-03-02T19:07:15.851Z,40.88
2018-03-02T19:09:44.267Z,48.13
2018-03-02T19:12:12.011Z,40.47
2018-03-02T19:14:40.066Z,39.28
2018-03-02T19:17:07.682Z,38.05
2018-03-02T19:19:36.307Z,40.95
2018-03-02T19:22:03.862Z,35.03
2018-03-02T19:24:31.836Z,40.00
2018-03-02T19:26:59.529Z,47.78
2018-03-02T19:29:27.469Z,41.72
2018-03-02T19:31:55.051Z,35.15
2018-03-02T19:34:22.568Z,33.85
2018-03-02T19:36:50.373Z,27.13
2018-03-02T19:39:17.928Z,41.65
2018-03-02T19:41:45.646Z,40.35
2018-03-02T19:44:14.475Z,31.10
2018-03-02T19:46:42.020Z,39.13
2018-03-02T19:49:09.621Z,37.80
2018-03-02T19:51:37.324Z,36.42
2018-03-02T19:54:04.918Z,31.17
2018-03-02T19:56:32.920Z,40.63
2018-03-02T19:59:00.624Z,42.87
2018-03-02T20:01:29.035Z,39.47
2018-03-02T20:03:56.575Z,37.60
2018-03-02T20:06:24.108Z,30.52
2018-03-02T20:08:52.396Z,34.20
2018-03-02T20:11:20.697Z,38.20
2018-03-02T20:13:48.249Z,39.40
2018-03-02T20:16:15.821Z,33.03
2018-03-02T20:18:43.355Z,52.45
2018-03-02T20:21:11.652Z,37.65
2018-03-02T20:23:39.199Z,41.97
2018-03-02T20:26:06.789Z,36.00
2018-03-02T20:28:34.352Z,40.45
2018-03-02T20:31:01.907Z,35.25
2018-03-02T20:33:29.471Z,47.78
2018-03-02T20:35:56.986Z,40.65
2018-03-02T20:38:25.309Z,34.40
2018-03-02T20:40:52.865Z,34.03
2018-03-02T20:43:20.435Z,40.15
2018-03-02T20:45:47.991Z,38.25
2018-03-02T20:48:15.529Z,40.95
2018-03-02T20:50:43.104Z,35.85
2018-03-02T20:53:10.696Z,34.67
2018-03-02T20:55:38.334Z,34.08
2018-03-02T20:58:05.879Z,41.55
2018-03-02T21:00:33.420Z,38.42
2018-03-02T21:03:01.691Z,33.28
2018-03-02T21:05:29.985Z,40.15
2018-03-02T21:07:57.490Z,32.42
2018-03-02T21:10:25.018Z,67.05
2018-03-02T21:12:52.571Z,78.62
2018-03-02T21:15:20.136Z,49.58
2018-03-02T21:17:47.696Z,36.53
2018-03-02T21:20:15.225Z,51.30
2018-03-02T21:22:43.652Z,50.22
2018-03-02T21:25:11.208Z,45.33
2018-03-02T21:27:38.741Z,78.87
2018-03-02T21:30:06.270Z,45.05
2018-03-02T21:32:33.931Z,46.75
2018-03-02T21:35:01.546Z,36.67
2018-03-02T21:37:29.287Z,60.85
2018-03-02T21:39:56.829Z,37.60
2018-03-02T21:42:25.559Z,43.85
2018-03-02T21:44:53.302Z,45.95
2018-03-02T21:47:20.832Z,47.53
2018-03-02T21:49:48.352Z,48.83
2018-03-02T21:52:17.559Z,48.70
2018-03-02T21:54:45.187Z,50.78
2018-03-02T21:57:12.862Z,41.97
2018-03-02T21:59:40.410Z,33.55
2018-03-02T22:02:08.036Z,36.40
2018-03-02T22:04:35.622Z,41.30
2018-03-02T22:07:04.016Z,40.40
2018-03-02T22:09:31.541Z,39.80
2018-03-02T22:11:59.151Z,37.13
2018-03-02T22:14:26.708Z,37.50
2018-03-02T22:16:54.236Z,40.33
2018-03-02T22:19:22.543Z,43.97
2018-03-02T22:21:50.249Z,36.10
2018-03-02T22:24:17.760Z,42.05
2018-03-02T22:26:45.280Z,35.03
2018-03-02T22:29:12.803Z,40.78
2018-03-02T22:31:40.314Z,36.72
2018-03-02T22:34:08.626Z,37.25
2018-03-02T22:36:36.186Z,36.58
2018-03-02T22:39:03.728Z,43.60
2018-03-02T22:41:31.293Z,46.92
2018-03-02T22:43:58.919Z,39.95
2018-03-02T22:46:26.437Z,39.67
2018-03-02T22:48:54.084Z,31.95
2018-03-02T22:51:21.596Z,39.85
2018-03-02T22:53:49.195Z,43.30
2018-03-02T22:56:16.755Z,32.92
2018-03-02T22:58:44.296Z,36.13
2018-03-02T23:01:12.593Z,41.15
2018-03-02T23:03:40.189Z,39.83
2018-03-02T23:06:07.714Z,49.90
2018-03-02T23:08:35.265Z,40.65
2018-03-02T23:11:03.542Z,44.60
2018-03-02T23:13:31.820Z,45.63
2018-03-02T23:16:00.125Z,37.85
2018-03-02T23:18:27.671Z,39.58
2018-03-02T23:20:55.243Z,40.70
2018-03-02T23:23:23.498Z,34.92
2018-03-02T23:25:51.776Z,43.08
2018-03-02T23:28:19.290Z,36.85
2018-03-02T23:30:47.062Z,35.85
2018-03-02T23:33:14.690Z,42.20
2018-03-02T23:35:42.233Z,32.80
2018-03-02T23:38:09.894Z,47.60
2018-03-02T23:40:37.432Z,39.30
2018-03-02T23:43:05.736Z,41.15
2018-03-02T23:45:33.347Z,36.75
2018-03-02T23:48:01.664Z,33.30
2018-03-02T23:50:30.050Z,38.33
2018-03-02T23:52:57.553Z,42.97
2018-03-02T23:55:25.180Z,41.30
2018-03-02T23:57:52.686Z,39.70
